Time;durP1;ratioP1;P1;durP2;ratioP2;P2;SDS_P1;SDS_P2;PMS_P1;PMS_P2;Temp;Humidity;BMP_temperature;BMP_pressure;BME280_temperature;BME280_humidity;BME280_pressure;Samples;Min_cycle;Max_cycle;Signal;HPM_P1;HPM_P2
2023/06/02 00:00:38;;;;;;;5.50;4.87;;;;;;;15.93;60.43;98824.13;4929900;29;42506;-77
2023/06/02 00:03:06;;;;;;;5.00;4.47;;;;;;;15.88;60.59;98826.34;4930327;29;42948;-78
2023/06/02 00:05:34;;;;;;;6.00;4.93;;;;;;;15.81;61.46;98825.16;4897939;29;42452;-77
2023/06/02 00:08:02;;;;;;;5.00;4.47;;;;;;;15.77;61.78;98823.72;4910486;29;40408;-78
2023/06/02 00:10:30;;;;;;;5.80;5.17;;;;;;;15.69;62.80;98816.38;4912161;29;40865;-78
2023/06/02 00:12:58;;;;;;;5.27;4.83;;;;;;;15.49;62.31;98805.63;4915355;28;42943;-78
2023/06/02 00:15:29;;;;;;;6.03;4.87;;;;;;;15.60;62.15;98833.13;4930743;29;42179;-77
2023/06/02 00:17:58;;;;;;;5.77;4.90;;;;;;;15.53;62.53;98825.75;4900307;28;40104;-78
2023/06/02 00:20:27;;;;;;;5.97;5.40;;;;;;;15.32;63.08;98802.56;4951767;28;40784;-78
2023/06/02 00:22:57;;;;;;;5.13;4.63;;;;;;;15.41;63.26;98828.47;4933487;28;43813;-77
2023/06/02 00:25:24;;;;;;;5.50;4.70;;;;;;;15.37;63.46;98821.69;4917905;29;40879;-77
2023/06/02 00:27:52;;;;;;;5.20;4.70;;;;;;;15.36;63.17;98827.13;4917876;28;38981;-78
2023/06/02 00:30:20;;;;;;;4.90;4.30;;;;;;;15.31;62.87;98838.22;4917187;29;40875;-78
2023/06/02 00:32:48;;;;;;;9.67;5.00;;;;;;;15.18;63.33;98820.66;4933736;28;43786;-79
2023/06/02 00:35:17;;;;;;;4.50;4.10;;;;;;;15.20;63.33;98830.25;4933060;29;42820;-78
2023/06/02 00:37:44;;;;;;;5.47;4.93;;;;;;;15.15;63.45;98836.91;4933264;28;40729;-79
2023/06/02 00:40:13;;;;;;;6.03;4.23;;;;;;;15.12;63.47;98843.34;4933526;29;41410;-78
2023/06/02 00:42:41;;;;;;;5.73;4.60;;;;;;;14.92;63.80;98817.44;4933454;28;43750;-79
2023/06/02 00:45:10;;;;;;;5.50;5.00;;;;;;;15.01;63.30;98841.53;4933057;29;41412;-78
2023/06/02 00:47:38;;;;;;;6.23;4.43;;;;;;;14.92;63.50;98831.63;4916094;29;40024;-79
2023/06/02 00:50:08;;;;;;;5.47;4.07;;;;;;;14.94;63.76;98850.16;4916395;29;40666;-79
2023/06/02 00:52:40;;;;;;;4.80;4.17;;;;;;;14.88;63.46;98851.50;4916630;29;41441;-80
2023/06/02 00:55:08;;;;;;;4.80;4.17;;;;;;;14.85;63.35;98858.88;4916269;29;42714;-79
2023/06/02 00:57:38;;;;;;;7.67;6.30;;;;;;;14.65;63.76;98817.84;4932566;29;40826;-79
2023/06/02 01:00:09;;;;;;;4.37;3.97;;;;;;;14.76;64.41;98856.97;4916056;29;41420;-79
2023/06/02 01:02:38;;;;;;;5.27;4.70;;;;;;;14.63;65.09;98847.28;4933605;29;42721;-78
2023/06/02 01:05:12;;;;;;;4.40;4.00;;;;;;;14.64;64.69;98859.63;4932074;29;42153;-79
2023/06/02 01:07:45;;;;;;;4.50;4.10;;;;;;;14.61;63.91;98859.88;4929484;29;39751;-78
2023/06/02 01:10:15;;;;;;;5.00;4.50;;;;;;;14.56;64.35;98856.72;4915300;29;40871;-79
2023/06/02 01:12:44;;;;;;;5.43;4.50;;;;;;;14.50;65.30;98854.53;4916690;29;42919;-78
2023/06/02 01:15:12;;;;;;;4.23;3.83;;;;;;;14.46;64.85;98861.09;4916165;29;41131;-78
2023/06/02 01:17:45;;;;;;;4.40;3.80;;;;;;;14.45;64.35;98858.56;4932581;29;40009;-80
2023/06/02 01:20:14;;;;;;;5.37;3.73;;;;;;;14.41;63.82;98863.25;4916321;29;41086;-78
2023/06/02 01:22:58;;;;;;;5.37;3.90;;;;;;;14.37;64.77;98859.09;4932230;29;43755;-79
2023/06/02 01:25:28;;;;;;;4.17;3.77;;;;;;;14.32;64.67;98858.63;4929593;29;42429;-78
2023/06/02 01:27:59;;;;;;;4.10;3.70;;;;;;;14.28;64.48;98862.47;4932317;29;41052;-78
2023/06/02 01:30:27;;;;;;;5.40;4.90;;;;;;;14.22;65.33;98855.81;4929846;29;41806;-78
2023/06/02 01:33:08;;;;;;;4.43;3.70;;;;;;;14.19;65.00;98863.19;4917149;29;41889;-78
2023/06/02 01:35:42;;;;;;;5.03;4.30;;;;;;;14.13;66.09;98863.66;4917339;29;41542;-78
2023/06/02 01:38:11;;;;;;;4.37;3.97;;;;;;;14.12;65.50;98861.97;4930345;29;40065;-78
2023/06/02 01:40:42;;;;;;;4.17;3.80;;;;;;;14.08;65.37;98868.50;4932775;29;42812;-78
2023/06/02 01:43:12;;;;;;;5.03;4.53;;;;;;;14.02;65.85;98859.16;4920492;29;41924;-78
2023/06/02 01:45:42;;;;;;;4.73;4.00;;;;;;;13.94;65.56;98859.75;4936319;29;41523;-79
2023/06/02 01:48:11;;;;;;;5.40;4.20;;;;;;;13.80;65.93;98849.31;4936594;29;40040;-78
2023/06/02 01:50:39;;;;;;;5.13;4.40;;;;;;;13.83;66.09;98857.06;4936069;28;42691;-77
2023/06/02 01:53:07;;;;;;;5.27;4.13;;;;;;;13.80;65.78;98862.59;4920516;29;44200;-79
2023/06/02 01:55:34;;;;;;;4.73;4.33;;;;;;;13.85;65.85;98872.88;4936197;29;42981;-79
2023/06/02 01:58:04;;;;;;;4.43;4.03;;;;;;;13.78;65.93;98871.66;4936439;28;40717;-76
2023/06/02 02:00:32;;;;;;;6.43;4.40;;;;;;;13.71;66.61;98868.63;4935008;29;41680;-78
2023/06/02 02:02:59;;;;;;;4.23;3.90;;;;;;;13.71;66.09;98884.59;4934859;29;41802;-77
2023/06/02 02:05:27;;;;;;;4.90;4.40;;;;;;;13.68;66.82;98878.66;4934956;29;44549;-78
2023/06/02 02:07:56;;;;;;;5.80;4.37;;;;;;;13.63;66.31;98878.97;4935046;29;39049;-77
2023/06/02 02:10:23;;;;;;;4.73;4.30;;;;;;;13.58;66.94;98878.50;4935671;29;42087;-78
2023/06/02 02:12:51;;;;;;;4.80;4.23;;;;;;;13.56;66.70;98885.75;4937287;29;42903;-78
2023/06/02 02:15:20;;;;;;;5.07;4.20;;;;;;;13.49;66.84;98873.84;4919696;29;42901;-79
2023/06/02 02:17:49;;;;;;;4.50;3.87;;;;;;;13.49;66.52;98890.66;4936243;29;40979;-79
2023/06/02 02:20:18;;;;;;;5.20;4.70;;;;;;;13.46;66.75;98890.03;4920047;29;41146;-79
2023/06/02 02:22:47;;;;;;;4.57;4.17;;;;;;;13.34;66.28;98880.31;4920099;29;41634;-78
2023/06/02 02:25:15;;;;;;;4.43;4.07;;;;;;;13.37;65.97;98885.38;4935913;29;43034;-78
2023/06/02 02:27:43;;;;;;;5.07;4.30;;;;;;;13.30;66.12;98882.34;4919175;29;38804;-79
2023/06/02 02:30:11;;;;;;;3.47;3.17;;;;;;;13.26;65.33;98881.69;4917799;29;42036;-78
2023/06/02 02:32:44;;;;;;;5.23;4.57;;;;;;;13.25;66.21;98881.81;4935154;29;42775;-78
2023/06/02 02:35:13;;;;;;;5.33;4.37;;;;;;;13.21;66.89;98891.00;4932087;29;42037;-79
2023/06/02 02:37:43;;;;;;;5.37;4.17;;;;;;;13.19;66.71;98893.75;4918882;29;41164;-78
2023/06/02 02:40:11;;;;;;;4.77;4.37;;;;;;;13.15;66.49;98894.94;4934601;29;42745;-79
2023/06/02 02:42:39;;;;;;;3.80;3.50;;;;;;;13.11;66.10;98890.75;4935814;29;42975;-79
2023/06/02 02:45:08;;;;;;;5.00;4.60;;;;;;;13.02;66.76;98880.78;4918832;29;41291;-78
2023/06/02 02:47:35;;;;;;;4.70;4.30;;;;;;;13.01;66.74;98879.09;4918665;29;39679;-78
2023/06/02 02:50:05;;;;;;;4.73;4.30;;;;;;;13.02;67.29;98886.09;4934324;29;41759;-78
2023/06/02 02:52:35;;;;;;;5.53;4.70;;;;;;;12.96;67.52;98881.25;4917924;29;41784;-78
2023/06/02 02:55:04;;;;;;;4.63;4.23;;;;;;;12.91;67.06;98883.38;4918154;29;41231;-77
2023/06/02 02:57:32;;;;;;;5.30;4.50;;;;;;;12.90;67.48;98881.66;4934486;29;39906;-78
2023/06/02 03:00:00;;;;;;;4.77;4.37;;;;;;;12.87;66.94;98892.50;4935037;29;42876;-79
2023/06/02 03:02:32;;;;;;;5.63;4.43;;;;;;;12.84;66.78;98898.06;4931875;29;43464;-79
2023/06/02 03:05:02;;;;;;;6.67;4.40;;;;;;;12.78;66.47;98902.00;4934017;29;42264;-78
2023/06/02 03:07:31;;;;;;;4.43;4.03;;;;;;;12.80;66.90;98907.22;4934383;29;40796;-78
2023/06/02 03:09:59;;;;;;;5.20;4.70;;;;;;;12.77;66.77;98902.09;4918134;29;40588;-77
2023/06/02 03:12:27;;;;;;;5.53;4.70;;;;;;;12.72;67.18;98896.28;4935082;29;42894;-79
2023/06/02 03:14:56;;;;;;;4.70;3.73;;;;;;;12.70;66.67;98906.16;4918789;29;41438;-79
2023/06/02 03:17:24;;;;;;;4.60;4.20;;;;;;;12.56;67.23;98883.22;4935404;29;39994;-78
2023/06/02 03:19:51;;;;;;;6.33;4.40;;;;;;;12.53;67.31;98884.28;4919507;29;41101;-78
2023/06/02 03:22:20;;;;;;;4.93;4.50;;;;;;;12.61;67.75;98901.50;4919306;29;43089;-78
2023/06/02 03:24:50;;;;;;;5.23;4.73;;;;;;;12.61;67.58;98910.28;4935160;29;42291;-81
2023/06/02 03:27:18;;;;;;;5.33;4.83;;;;;;;12.55;67.51;98894.78;4919332;29;39036;-85
2023/06/02 03:29:52;;;;;;;5.63;4.43;;;;;;;12.59;67.30;98905.13;4933190;29;41670;-81
2023/06/02 03:32:23;;;;;;;4.83;4.33;;;;;;;12.57;67.64;98907.03;4919669;29;43461;-80
2023/06/02 03:34:51;;;;;;;4.60;4.20;;;;;;;12.45;67.40;98886.63;4918628;29;41686;-83
2023/06/02 03:37:19;;;;;;;4.60;4.20;;;;;;;12.58;67.30;98914.03;4917555;29;39552;-79
2023/06/02 03:39:50;;;;;;;5.03;4.63;;;;;;;12.58;67.42;98906.06;4918313;29;40512;-79
2023/06/02 03:42:19;;;;;;;5.00;4.43;;;;;;;12.46;67.01;98893.66;4918167;29;43609;-80
2023/06/02 03:44:47;;;;;;;4.20;3.80;;;;;;;12.58;67.14;98907.88;4918170;29;41255;-85
2023/06/02 03:47:15;;;;;;;4.93;4.37;;;;;;;12.59;66.75;98915.75;4918444;29;38699;-81
2023/06/02 03:49:43;;;;;;;6.27;4.83;;;;;;;12.61;67.63;98917.44;4918047;29;41841;-82
2023/06/02 03:52:11;;;;;;;6.00;4.87;;;;;;;12.63;67.25;98915.50;4917972;29;42853;-79
2023/06/02 03:54:39;;;;;;;4.80;4.30;;;;;;;12.62;66.52;98917.31;4917676;29;41323;-80
2023/06/02 03:57:08;;;;;;;4.83;4.10;;;;;;;12.65;66.58;98924.22;4917953;29;39938;-81
2023/06/02 03:59:36;;;;;;;4.90;4.10;;;;;;;12.58;66.15;98914.03;4917825;29;42074;-84
2023/06/02 04:02:06;;;;;;;4.40;3.73;;;;;;;12.72;66.30;98925.50;4917608;29;41554;-80
2023/06/02 04:04:36;;;;;;;4.43;3.40;;;;;;;12.74;65.68;98939.50;4916875;29;41002;-79
2023/06/02 04:07:04;;;;;;;3.93;3.63;;;;;;;12.66;65.97;98916.16;4933673;29;38896;-79
2023/06/02 04:09:31;;;;;;;4.10;3.67;;;;;;;12.68;65.45;98911.59;4917629;29;41728;-80
2023/06/02 04:11:59;;;;;;;4.40;4.00;;;;;;;12.83;65.92;98933.56;4917954;29;42106;-80
2023/06/02 04:14:30;;;;;;;4.20;3.80;;;;;;;12.86;65.12;98938.66;4933167;29;41177;-84
2023/06/02 04:16:58;;;;;;;4.57;3.83;;;;;;;12.90;65.50;98940.16;4933869;29;39292;-81
2023/06/02 04:19:26;;;;;;;6.33;4.63;;;;;;;12.78;64.93;98909.13;4933355;29;42558;-83
2023/06/02 04:21:54;;;;;;;4.50;4.10;;;;;;;13.01;65.10;98940.22;4933560;28;44214;-79
2023/06/02 04:24:22;;;;;;;6.10;4.07;;;;;;;12.92;65.07;98924.94;4918319;29;41307;-85
2023/06/02 04:26:49;;;;;;;4.30;3.70;;;;;;;13.10;64.64;98942.25;4934744;29;40205;-82
2023/06/02 04:29:19;;;;;;;7.73;4.47;;;;;;;13.17;65.01;98946.19;4918738;29;41569;-80
2023/06/02 04:31:49;;;;;;;5.40;4.90;;;;;;;13.08;65.13;98930.88;4918465;29;41962;-87
2023/06/02 04:34:22;;;;;;;4.77;4.27;;;;;;;13.26;64.65;98947.34;4904179;29;43987;-83
2023/06/02 04:36:51;;;;;;;5.67;4.40;;;;;;;13.34;64.36;98950.31;4918872;29;39608;-85
2023/06/02 04:39:20;;;;;;;4.77;4.37;;;;;;;13.33;64.24;98942.44;4918641;29;40963;-83
2023/06/02 04:41:50;;;;;;;5.17;4.57;;;;;;;13.37;64.42;98931.44;4918457;29;41320;-80
2023/06/02 04:44:18;;;;;;;5.03;4.53;;;;;;;13.56;64.43;98952.25;4934824;29;43390;-81
2023/06/02 04:46:49;;;;;;;5.70;4.43;;;;;;;13.66;64.63;98955.94;4918680;29;41009;-84
2023/06/02 04:49:16;;;;;;;5.80;5.07;;;;;;;13.74;64.63;98950.88;4918483;29;41093;-80
2023/06/02 04:51:45;;;;;;;5.37;4.73;;;;;;;13.74;63.92;98936.72;4917924;29;41839;-81
2023/06/02 04:54:15;;;;;;;5.50;4.63;;;;;;;13.92;63.92;98949.53;4932047;29;42318;-79
2023/06/02 04:56:43;;;;;;;5.07;4.33;;;;;;;14.03;63.40;98954.91;4917194;29;40338;-78
2023/06/02 04:59:13;;;;;;;6.13;5.20;;;;;;;13.98;63.40;98933.09;4930100;29;42433;-85
2023/06/02 05:01:42;;;;;;;5.87;4.90;;;;;;;14.24;63.24;98954.25;4916943;29;42606;-78
2023/06/02 05:04:12;;;;;;;7.27;5.93;;;;;;;14.30;62.89;98959.97;4933080;29;42300;-79
2023/06/02 05:06:39;;;;;;;7.80;5.90;;;;;;;14.37;62.04;98963.00;4917194;29;39959;-81
2023/06/02 05:09:08;;;;;;;10.80;5.47;;;;;;;14.44;61.83;98958.94;4932311;29;41786;-84
2023/06/02 05:11:36;;;;;;;7.90;5.93;;;;;;;14.56;61.40;98967.81;4933069;29;42609;-81
2023/06/02 05:14:06;;;;;;;9.00;5.83;;;;;;;14.65;61.47;98959.94;4917444;29;42380;-75
2023/06/02 05:16:35;;;;;;;7.37;5.73;;;;;;;14.70;60.74;98964.94;4933087;29;39654;-76
2023/06/02 05:19:04;;;;;;;7.80;5.00;;;;;;;14.82;60.55;98965.81;4917584;29;41804;-78
2023/06/02 05:21:33;;;;;;;7.90;5.53;;;;;;;14.91;60.24;98960.59;4933799;29;42743;-82
2023/06/02 05:24:03;;;;;;;8.60;6.13;;;;;;;14.88;59.66;98951.97;4918212;29;43343;-82
2023/06/02 05:26:31;;;;;;;7.47;6.10;;;;;;;15.04;59.81;98966.66;4917902;29;40274;-81
2023/06/02 05:28:59;;;;;;;6.20;5.60;;;;;;;15.12;59.64;98974.03;4933899;29;41801;-79
2023/06/02 05:31:27;;;;;;;9.43;5.97;;;;;;;15.10;58.95;98957.31;4917527;29;41577;-81
2023/06/02 05:33:55;;;;;;;6.97;6.07;;;;;;;15.28;58.32;98977.19;4917408;29;42511;-79
2023/06/02 05:36:23;;;;;;;6.23;5.60;;;;;;;15.38;58.59;98972.81;4933508;29;40148;-80
2023/06/02 05:38:52;;;;;;;8.77;5.40;;;;;;;15.50;58.30;98970.97;4917427;29;40991;-78
2023/06/02 05:41:20;;;;;;;6.20;4.87;;;;;;;15.55;57.70;98962.66;4915635;29;41937;-77
2023/06/02 05:43:49;;;;;;;7.83;6.00;;;;;;;15.70;57.33;98977.41;4932385;29;42377;-80
2023/06/02 05:46:16;;;;;;;7.97;4.97;;;;;;;15.79;57.56;98977.50;4932206;29;40368;-80
2023/06/02 05:48:44;;;;;;;6.73;5.83;;;;;;;15.83;56.82;98972.75;4932634;29;42629;-79
2023/06/02 05:51:12;;;;;;;6.17;5.57;;;;;;;16.04;56.54;98992.38;4916177;29;42860;-82
2023/06/02 05:53:40;;;;;;;8.07;4.90;;;;;;;16.18;56.88;98980.53;4932267;29;43264;-79
2023/06/02 05:56:09;;;;;;;8.83;6.10;;;;;;;16.29;55.95;98998.34;4916236;29;39023;-83
2023/06/02 05:58:38;;;;;;;5.83;5.33;;;;;;;16.36;55.95;98986.16;4916090;29;41207;-78
2023/06/02 06:01:06;;;;;;;6.93;5.07;;;;;;;16.52;55.84;98991.91;4915853;29;43533;-77
2023/06/02 06:03:34;;;;;;;4.47;4.07;;;;;;;16.66;55.57;98991.63;4915792;29;40923;-78
2023/06/02 06:06:03;;;;;;;6.97;5.40;;;;;;;16.79;55.00;98996.75;4916132;29;40318;-78
2023/06/02 06:08:32;;;;;;;5.63;5.00;;;;;;;16.93;54.53;98995.59;4915850;29;42143;-77
2023/06/02 06:11:00;;;;;;;6.73;5.47;;;;;;;17.06;54.33;98996.22;4915820;29;41826;-78
2023/06/02 06:13:29;;;;;;;7.93;5.83;;;;;;;17.05;54.45;98994.53;4915548;29;42084;-83
2023/06/02 06:15:57;;;;;;;8.77;5.67;;;;;;;17.15;54.37;98995.41;4917507;29;39980;-80
2023/06/02 06:18:25;;;;;;;9.17;5.67;;;;;;;17.28;53.93;98990.69;4917041;29;40940;-81
2023/06/02 06:20:53;;;;;;;7.50;6.07;;;;;;;17.42;53.42;99003.69;4916778;29;43002;-79
2023/06/02 06:23:22;;;;;;;7.47;5.90;;;;;;;17.45;53.30;98999.88;4932753;28;42238;-81
2023/06/02 06:25:50;;;;;;;7.40;6.13;;;;;;;17.51;52.69;99000.19;4915839;29;40971;-79
2023/06/02 06:28:18;;;;;;;6.30;5.57;;;;;;;17.70;53.15;99009.28;4933345;29;42469;-80
2023/06/02 06:30:47;;;;;;;6.30;4.97;;;;;;;17.83;52.60;99012.56;4918412;29;42867;-78
2023/06/02 06:33:15;;;;;;;7.07;5.50;;;;;;;17.91;52.54;99013.59;4918785;29;42055;-78
2023/06/02 06:35:42;;;;;;;6.70;6.00;;;;;;;17.99;51.81;99012.88;4918969;29;39408;-83
2023/06/02 06:38:11;;;;;;;7.90;5.97;;;;;;;18.26;51.79;99034.50;4919287;29;41200;-80
2023/06/02 06:40:39;;;;;;;9.50;6.00;;;;;;;18.39;51.16;99031.56;4934969;29;43781;-83
2023/06/02 06:43:06;;;;;;;7.20;5.80;;;;;;;18.62;51.32;99026.78;4919092;29;41260;-82
2023/06/02 06:45:42;;;;;;;7.03;4.90;;;;;;;18.82;51.72;99023.06;4934618;29;39063;-80
2023/06/02 06:48:11;;;;;;;7.20;5.30;;;;;;;18.88;50.48;99027.88;4918705;29;41126;-79
2023/06/02 06:50:39;;;;;;;7.30;5.90;;;;;;;19.02;49.38;99040.00;4934248;28;41825;-77
2023/06/02 06:53:07;;;;;;;7.37;5.40;;;;;;;19.09;49.60;99035.72;4936022;29;41970;-81
2023/06/02 06:55:35;;;;;;;9.20;5.53;;;;;;;19.16;49.18;99042.22;4918858;29;39929;-81
2023/06/02 06:58:02;;;;;;;8.53;5.50;;;;;;;19.24;48.84;99036.97;4934690;29;41495;-79
2023/06/02 07:00:31;;;;;;;7.90;5.70;;;;;;;19.42;48.93;99036.19;4918433;29;42160;-83
2023/06/02 07:02:59;;;;;;;6.30;5.63;;;;;;;19.47;48.91;99032.06;4934463;28;42515;-77
2023/06/02 07:05:29;;;;;;;7.73;5.57;;;;;;;19.75;48.58;99049.09;4935608;29;40667;-79
2023/06/02 07:07:57;;;;;;;4.97;4.43;;;;;;;19.86;48.04;99039.97;4918498;29;41181;-78
2023/06/02 07:10:24;;;;;;;7.37;5.20;;;;;;;20.00;48.24;99026.03;4933999;29;43481;-78
2023/06/02 07:12:52;;;;;;;5.77;5.20;;;;;;;20.27;47.19;99057.44;4918142;29;41900;-77
2023/06/02 07:15:20;;;;;;;5.43;4.90;;;;;;;20.41;47.44;99049.69;4917932;29;39718;-79
2023/06/02 07:17:48;;;;;;;5.83;5.23;;;;;;;20.60;46.73;99056.75;4935593;29;42140;-85
2023/06/02 07:20:15;;;;;;;8.67;6.20;;;;;;;20.59;45.95;99033.53;4936160;29;42566;-87
2023/06/02 07:22:45;;;;;;;5.80;5.30;;;;;;;20.94;46.55;99059.56;4935777;29;42555;-85
2023/06/02 07:25:13;;;;;;;8.97;6.50;;;;;;;20.99;45.78;99054.56;4919380;29;40145;-82
2023/06/02 07:27:40;;;;;;;7.53;5.10;;;;;;;21.43;45.46;99076.94;4935173;29;41038;-81
2023/06/02 07:30:09;;;;;;;6.20;5.20;;;;;;;21.96;44.88;99077.72;4919092;29;42835;-83
2023/06/02 07:32:37;;;;;;;6.97;5.73;;;;;;;22.71;43.43;99078.59;4935105;28;42489;-81
2023/06/02 07:35:05;;;;;;;7.07;5.23;;;;;;;22.90;42.21;99024.28;4934934;28;39292;-82
2023/06/02 07:37:33;;;;;;;6.87;5.27;;;;;;;23.53;40.64;99072.16;4935109;29;41739;-80
2023/06/02 07:40:02;;;;;;;5.87;5.17;;;;;;;23.74;40.17;99079.72;4919058;29;41885;-82
2023/06/02 07:42:29;;;;;;;9.13;5.60;;;;;;;23.78;39.93;99078.34;4935190;29;41049;-82
2023/06/02 07:44:57;;;;;;;5.93;4.77;;;;;;;23.86;39.99;99092.66;4934867;29;39176;-81
2023/06/02 07:47:24;;;;;;;6.43;5.83;;;;;;;23.83;39.55;99095.75;4936031;29;42567;-86
2023/06/02 07:49:52;;;;;;;4.83;4.27;;;;;;;23.98;39.76;99079.63;4935954;29;42755;-80
2023/06/02 07:52:20;;;;;;;7.40;5.60;;;;;;;24.99;37.36;99112.91;4936160;29;42697;-84
2023/06/02 07:54:48;;;;;;;5.27;4.77;;;;;;;26.28;35.90;99109.06;4918672;29;39384;-79
2023/06/02 07:57:17;;;;;;;6.40;5.50;;;;;;;27.75;33.24;99130.19;4935480;29;42654;-79
2023/06/02 07:59:44;;;;;;;5.07;4.43;;;;;;;28.23;33.30;99129.25;4918296;29;41423;-79
2023/06/02 08:02:12;;;;;;;7.13;4.93;;;;;;;29.04;32.16;99125.75;4935153;29;42513;-80
2023/06/02 08:04:39;;;;;;;5.97;5.37;;;;;;;29.59;30.28;99136.28;4934290;29;40723;-79
2023/06/02 08:07:07;;;;;;;6.87;5.47;;;;;;;29.44;30.18;99143.00;4918516;29;42293;-80
2023/06/02 08:09:35;;;;;;;6.90;5.27;;;;;;;29.43;29.95;99139.44;4918086;29;42713;-79
2023/06/02 08:12:02;;;;;;;5.77;5.17;;;;;;;29.93;30.05;99128.88;4933731;29;41867;-80
2023/06/02 08:14:33;;;;;;;5.80;5.20;;;;;;;30.61;28.19;99126.59;4918025;29;39871;-82
2023/06/02 08:17:20;;;;;;;8.07;4.90;;;;;;;31.30;28.23;99128.50;4918347;29;40908;-81
2023/06/02 08:23:01;;;;;;;4.13;3.73;;;;;;;31.20;28.82;99065.22;4917108;29;43037;-81
2023/06/02 08:25:32;;;;;;;5.33;3.60;;;;;;;31.78;28.02;99132.28;4917084;29;39457;-79
2023/06/02 08:28:04;;;;;;;4.00;3.60;;;;;;;32.03;27.72;99129.50;4936335;29;41860;-86
2023/06/02 08:30:35;;;;;;;4.37;3.93;;;;;;;32.12;27.95;99116.34;4933416;28;42855;-84
2023/06/02 08:33:08;;;;;;;5.20;4.20;;;;;;;32.16;27.21;99134.00;4944074;28;41276;-86
2023/06/02 08:35:43;;;;;;;5.10;4.50;;;;;;;32.59;26.65;99127.63;4945180;28;20233;-87
2023/06/02 08:38:14;;;;;;;5.27;4.70;;;;;;;32.72;25.71;99105.53;4939421;28;40988;-84
2023/06/02 08:40:42;;;;;;;5.27;4.77;;;;;;;32.92;26.13;99110.72;4937923;28;42019;-79
2023/06/02 08:43:13;;;;;;;4.80;4.40;;;;;;;32.63;26.26;99107.72;4937174;28;41194;-84
2023/06/02 08:45:43;;;;;;;4.80;4.07;;;;;;;32.63;26.61;99112.38;4937613;28;39033;-83
2023/06/02 08:48:17;;;;;;;4.70;4.13;;;;;;;32.61;26.70;99109.03;4937337;28;42334;-86
2023/06/02 08:50:49;;;;;;;5.53;4.97;;;;;;;32.43;26.04;99116.19;4936518;28;42212;-83
2023/06/02 08:53:17;;;;;;;5.07;4.10;;;;;;;31.94;26.58;99119.06;4952550;28;43010;-81
2023/06/02 08:55:49;;;;;;;4.90;4.00;;;;;;;31.49;27.70;99105.59;4952774;28;41249;-85
2023/06/02 08:58:16;;;;;;;4.37;3.93;;;;;;;31.28;28.13;99108.75;4936452;28;41002;-82
2023/06/02 09:00:45;;;;;;;4.97;4.47;;;;;;;31.17;27.61;99082.06;4953632;28;42776;-78
2023/06/02 09:03:14;;;;;;;5.17;4.67;;;;;;;31.40;28.60;99096.81;4951979;28;42910;-81
2023/06/02 09:05:43;;;;;;;4.47;4.07;;;;;;;31.62;26.80;99108.22;4953478;28;40191;-79
2023/06/02 09:08:12;;;;;;;4.97;4.47;;;;;;;32.04;27.46;99097.47;4936055;28;40944;-81
2023/06/02 09:10:41;;;;;;;5.00;4.60;;;;;;;32.17;27.02;99113.75;4953313;28;42935;-84
2023/06/02 09:13:10;;;;;;;4.70;4.30;;;;;;;31.48;26.64;99103.91;4951492;28;43402;-79
2023/06/02 09:15:57;;;;;;;4.43;4.03;;;;;;;31.39;27.30;99094.31;4936422;28;39965;-81
2023/06/02 09:18:25;;;;;;;5.47;4.40;;;;;;;30.97;27.88;99107.66;4951973;28;42927;-81
2023/06/02 09:20:53;;;;;;;4.30;3.90;;;;;;;30.78;27.47;99110.53;4952292;28;42821;-78
2023/06/02 09:23:21;;;;;;;5.53;4.30;;;;;;;30.98;27.75;99111.22;4951849;28;42343;-81
2023/06/02 09:25:49;;;;;;;4.87;4.47;;;;;;;31.11;27.46;99096.66;4952311;28;40405;-82
2023/06/02 09:28:16;;;;;;;5.07;3.53;;;;;;;31.22;28.25;99083.09;4952429;28;42584;-80
2023/06/02 09:30:46;;;;;;;5.63;4.30;;;;;;;31.61;26.84;99097.47;4935826;28;42943;-85
2023/06/02 09:33:16;;;;;;;5.83;3.93;;;;;;;32.34;25.80;99087.44;4951949;28;41337;-78
2023/06/02 09:35:45;;;;;;;4.50;4.00;;;;;;;33.24;25.64;99111.31;4951649;28;40293;-81
2023/06/02 09:38:15;;;;;;;4.47;3.87;;;;;;;33.82;25.09;99117.72;4935968;28;40743;-78
2023/06/02 09:40:45;;;;;;;4.43;3.90;;;;;;;34.32;25.01;99111.69;4935529;28;41876;-80
2023/06/02 09:43:16;;;;;;;5.57;3.80;;;;;;;33.88;25.10;99115.88;4952926;28;42027;-80
2023/06/02 09:45:59;;;;;;;5.53;3.80;;;;;;;32.88;25.35;99121.34;4952295;28;41038;-81
2023/06/02 09:48:29;;;;;;;4.20;3.80;;;;;;;31.73;25.66;99066.41;4936224;28;40640;-78
2023/06/02 09:50:58;;;;;;;3.97;3.30;;;;;;;32.98;25.28;99105.13;4952769;28;42817;-78
2023/06/02 09:53:25;;;;;;;4.13;3.30;;;;;;;33.12;25.97;99108.53;4951231;28;42402;-77
2023/06/02 09:55:53;;;;;;;4.00;3.60;;;;;;;32.65;25.63;99111.06;4951818;28;40153;-81
2023/06/02 09:58:21;;;;;;;5.80;4.27;;;;;;;32.97;25.92;99100.72;4951867;28;42690;-81
2023/06/02 10:00:49;;;;;;;4.57;4.10;;;;;;;32.83;25.94;99102.81;4951024;28;43172;-80
2023/06/02 10:03:16;;;;;;;6.03;4.03;;;;;;;32.66;27.18;99104.50;4937437;28;41534;-78
2023/06/02 10:05:54;;;;;;;5.10;4.37;;;;;;;32.31;26.99;99112.56;4954668;28;40078;-78
2023/06/02 10:08:33;;;;;;;5.70;3.93;;;;;;;31.94;27.03;99102.63;4952910;28;41550;-79
2023/06/02 10:11:12;;;;;;;4.40;3.63;;;;;;;31.35;27.01;99101.28;4955593;28;43476;-79
2023/06/02 10:14:15;;;;;;;3.93;3.53;;;;;;;31.24;27.26;99091.06;4954508;28;43302;-82
2023/06/02 10:16:54;;;;;;;4.20;3.40;;;;;;;31.63;27.12;99104.41;4939190;28;40002;-80
2023/06/02 10:19:54;;;;;;;7.43;4.80;;;;;;;31.86;26.90;99095.56;4952620;28;42587;-80
2023/06/02 10:23:09;;;;;;;6.77;4.23;;;;;;;31.31;27.43;99094.59;4953248;28;43655;-79
2023/06/02 10:25:52;;;;;;;4.30;3.90;;;;;;;31.41;28.08;99089.44;4898707;29;42200;-81
2023/06/02 10:28:20;;;;;;;5.10;4.13;;;;;;;31.55;26.16;99101.94;4937846;28;39885;-78
2023/06/02 10:31:05;;;;;;;5.13;3.97;;;;;;;31.45;27.10;99076.97;4954121;28;41726;-77
2023/06/02 10:33:43;;;;;;;6.17;4.13;;;;;;;31.57;27.29;99094.34;4938374;28;41731;-79
2023/06/02 10:36:12;;;;;;;4.47;3.80;;;;;;;31.70;26.97;99101.63;4954097;28;42271;-79
2023/06/02 10:38:40;;;;;;;5.33;4.07;;;;;;;31.72;28.35;99081.16;4954002;28;40934;-78
2023/06/02 10:41:10;;;;;;;7.87;4.20;;;;;;;31.84;28.83;99070.31;4937825;28;41245;-76
2023/06/02 10:43:38;;;;;;;5.27;4.00;;;;;;;31.77;26.75;99055.84;4954017;28;43330;-77
2023/06/02 10:46:20;;;;;;;4.20;3.00;;;;;;;31.71;28.28;99076.75;4938210;28;41391;-78
2023/06/02 10:48:48;;;;;;;4.60;4.20;;;;;;;31.36;26.77;99089.28;4952384;28;40053;-77
2023/06/02 10:51:16;;;;;;;4.40;4.00;;;;;;;31.11;27.95;99080.25;4937734;28;41910;-75
2023/06/02 10:54:14;;;;;;;4.60;3.80;;;;;;;30.79;27.20;99082.09;4955059;28;43129;-77
2023/06/02 10:56:45;;;;;;;5.07;4.00;;;;;;;30.77;29.26;99071.41;4951067;28;43428;-76
2023/06/02 10:59:31;;;;;;;4.80;4.30;;;;;;;30.77;27.69;99082.34;4953697;28;39065;-76
2023/06/02 11:01:59;;;;;;;6.13;3.60;;;;;;;30.60;29.49;99067.50;4953904;28;40646;-77
2023/06/02 11:04:29;;;;;;;5.17;4.43;;;;;;;30.59;28.72;99061.22;4953657;28;42168;-75
2023/06/02 11:07:21;;;;;;;4.07;3.57;;;;;;;30.63;29.61;99062.44;4954947;28;41993;-75
2023/06/02 11:09:51;;;;;;;4.10;3.30;;;;;;;30.58;29.36;99064.16;4937044;28;40344;-74
2023/06/02 11:12:20;;;;;;;3.93;3.53;;;;;;;30.56;28.50;99066.25;4937451;28;41915;-74
2023/06/02 11:15:17;;;;;;;4.93;4.00;;;;;;;30.46;28.65;99077.66;4952075;28;42857;-75
2023/06/02 11:17:47;;;;;;;4.03;3.63;;;;;;;30.46;28.86;99071.34;4953665;28;42291;-74
2023/06/02 11:20:17;;;;;;;5.13;3.23;;;;;;;30.37;28.89;99070.75;4953674;28;39811;-74
2023/06/02 11:22:46;;;;;;;4.97;3.90;;;;;;;30.34;29.11;99068.47;4953343;28;43339;-75
2023/06/02 11:25:17;;;;;;;5.57;3.93;;;;;;;30.36;27.27;99086.31;4954024;28;42817;-75
2023/06/02 11:27:48;;;;;;;4.97;3.70;;;;;;;30.22;29.18;99065.56;4950433;28;42364;-74
2023/06/02 11:30:17;;;;;;;3.80;3.47;;;;;;;30.30;30.15;99068.03;4953673;28;41497;-74
2023/06/02 11:32:47;;;;;;;5.50;3.33;;;;;;;30.42;28.90;99070.09;4954434;28;42721;-74
2023/06/02 11:35:16;;;;;;;4.43;4.03;;;;;;;30.53;29.25;99072.16;4937088;28;41709;-74
2023/06/02 11:37:44;;;;;;;4.87;3.57;;;;;;;30.35;27.28;99087.38;4953405;28;42275;-74
2023/06/02 11:40:13;;;;;;;5.53;3.23;;;;;;;30.56;28.53;99079.94;4954581;28;39965;-74
2023/06/02 11:42:42;;;;;;;5.47;3.57;;;;;;;30.77;26.14;99096.03;4954602;28;42708;-74
2023/06/02 11:45:23;;;;;;;4.10;3.30;;;;;;;31.04;27.96;99053.72;4953054;28;42530;-74
2023/06/02 11:47:58;;;;;;;5.07;3.53;;;;;;;32.13;26.31;99090.63;4951675;28;43176;-74
2023/06/02 11:50:26;;;;;;;4.70;3.07;;;;;;;32.94;25.58;99076.47;4952903;28;39000;-75